createdAt,value
2022-09-20T00:01:24.058Z,97417.28
2022-09-20T00:06:36.831Z,97424.56
2022-09-20T00:09:05.374Z,97426.44
2022-09-20T00:11:33.844Z,97420.44
2022-09-20T00:14:02.166Z,97435.88
2022-09-20T00:16:32.051Z,97422.31
2022-09-20T00:19:00.263Z,97433.66
2022-09-20T00:21:29.021Z,97424.44
2022-09-20T00:23:57.712Z,97423.13
2022-09-20T00:26:26.102Z,97425.00
2022-09-20T00:28:53.145Z,97427.69
2022-09-20T00:31:20.274Z,97427.69
2022-09-20T00:34:05.597Z,97430.16
2022-09-20T00:36:32.427Z,97422.09
2022-09-20T00:39:01.097Z,97436.09
2022-09-20T00:41:30.415Z,97425.00
2022-09-20T00:43:57.599Z,97433.66
2022-09-20T00:46:56.540Z,97427.47
2022-09-20T00:49:27.989Z,97430.97
2022-09-20T00:52:01.388Z,97429.13
2022-09-20T00:54:30.657Z,97432.38
2022-09-20T00:56:58.181Z,97432.84
2022-09-20T00:59:34.891Z,97438.00
2022-09-20T01:02:07.003Z,97429.94
2022-09-20T01:04:36.085Z,97439.03
2022-09-20T01:07:05.751Z,97434.72
2022-09-20T01:09:32.310Z,97438.56
2022-09-20T01:12:03.803Z,97426.19
2022-09-20T01:14:30.725Z,97434.50
2022-09-20T01:17:02.639Z,97433.41
2022-09-20T01:19:31.936Z,97435.06
2022-09-20T01:22:00.543Z,97431.81
2022-09-20T01:24:42.698Z,97439.88
2022-09-20T01:27:17.146Z,97437.19
2022-09-20T01:30:03.451Z,97445.00
2022-09-20T01:32:41.614Z,97438.44
2022-09-20T01:35:09.955Z,97441.94
2022-09-20T01:38:00.001Z,97437.41
2022-09-20T01:40:39.011Z,97435.44
2022-09-20T01:43:21.608Z,97445.34
2022-09-20T01:45:49.804Z,97437.88
2022-09-20T01:48:22.397Z,97442.69
2022-09-20T01:51:26.723Z,97440.44
2022-09-20T01:54:02.441Z,97449.56
2022-09-20T01:56:53.112Z,97442.53
2022-09-20T01:59:47.587Z,97447.34
2022-09-20T02:02:23.111Z,97439.28
2022-09-20T02:07:42.517Z,97448.28
2022-09-20T02:10:32.510Z,97440.66
2022-09-20T02:13:03.283Z,97450.59
2022-09-20T02:15:48.078Z,97447.91
2022-09-20T02:18:21.198Z,97449.78
2022-09-20T02:20:58.388Z,97454.34
2022-09-20T02:23:38.526Z,97448.13
2022-09-20T02:26:23.716Z,97449.78
2022-09-20T02:29:00.999Z,97444.88
2022-09-20T02:31:53.484Z,97454.78
2022-09-20T02:34:25.507Z,97452.31
2022-09-20T02:37:10.801Z,97452.13
2022-09-20T02:39:48.986Z,97455.63
2022-09-20T02:42:29.750Z,97459.34
2022-09-20T02:45:03.963Z,97450.09
2022-09-20T02:47:44.030Z,97450.34
2022-09-20T02:50:23.397Z,97462.25
2022-09-20T02:52:50.041Z,97458.75
2022-09-20T02:55:35.411Z,97465.19
2022-09-20T02:58:23.756Z,97461.44
2022-09-20T03:01:20.301Z,97467.88
2022-09-20T03:04:05.724Z,97464.34
2022-09-20T03:06:35.454Z,97469.47
2022-09-20T03:09:35.154Z,97467.25
2022-09-20T03:12:23.671Z,97462.97
2022-09-20T03:15:16.344Z,97465.66
2022-09-20T03:17:48.556Z,97470.19
2022-09-20T03:20:21.938Z,97473.09
2022-09-20T03:22:57.198Z,97466.13
2022-09-20T03:25:46.318Z,97470.06
2022-09-20T03:28:24.994Z,97476.50
2022-09-20T03:31:09.889Z,97473.56
2022-09-20T03:33:45.855Z,97480.59
2022-09-20T03:36:25.943Z,97477.06
2022-09-20T03:39:14.035Z,97476.25
2022-09-20T03:41:59.402Z,97488.84
2022-09-20T03:44:44.317Z,97483.47
2022-09-20T03:47:33.171Z,97489.69
2022-09-20T03:50:21.125Z,97496.69
2022-09-20T03:53:06.441Z,97490.72
2022-09-20T03:56:01.123Z,97501.25
2022-09-20T03:58:52.839Z,97493.41
2022-09-20T04:01:28.398Z,97492.81
2022-09-20T04:04:14.251Z,97500.78
2022-09-20T04:09:13.947Z,97502.16
2022-09-20T04:11:59.801Z,97503.22
2022-09-20T04:14:41.680Z,97509.97
2022-09-20T04:17:20.709Z,97510.22
2022-09-20T04:19:57.098Z,97516.41
2022-09-20T04:22:27.502Z,97514.19
2022-09-20T04:25:02.783Z,97515.81
2022-09-20T04:27:39.388Z,97520.97
2022-09-20T04:30:18.279Z,97513.75
2022-09-20T04:33:13.438Z,97523.41
2022-09-20T04:36:17.453Z,97527.75
2022-09-20T04:38:48.473Z,97517.00
2022-09-20T04:41:23.768Z,97517.00
2022-09-20T04:44:15.223Z,97524.84
2022-09-20T04:47:03.319Z,97524.03
2022-09-20T04:49:50.383Z,97522.94
2022-09-20T04:52:53.775Z,97533.69
2022-09-20T04:55:46.127Z,97538.63
2022-09-20T04:58:42.327Z,97538.63
2022-09-20T05:01:23.424Z,97534.31
2022-09-20T05:04:21.277Z,97538.84
2022-09-20T05:07:09.030Z,97537.19
2022-09-20T05:10:10.751Z,97542.34
2022-09-20T05:12:54.610Z,97553.94
2022-09-20T05:15:56.464Z,97545.63
2022-09-20T05:18:33.312Z,97549.59
2022-09-20T05:20:59.840Z,97545.50
2022-09-20T05:23:55.386Z,97555.44
2022-09-20T05:26:37.114Z,97557.88
2022-09-20T05:29:24.701Z,97559.16
2022-09-20T05:32:08.897Z,97555.63
2022-09-20T05:34:46.396Z,97562.19
2022-09-20T05:37:47.517Z,97569.34
2022-09-20T05:40:39.457Z,97566.06
2022-09-20T05:43:12.636Z,97568.53
2022-09-20T05:46:05.499Z,97569.94
2022-09-20T05:48:50.905Z,97575.06
2022-09-20T05:51:39.533Z,97578.38
2022-09-20T05:54:39.101Z,97576.88
2022-09-20T05:57:16.945Z,97584.47
2022-09-20T06:00:28.033Z,97580.72
2022-09-20T06:03:21.722Z,97589.38
2022-09-20T06:09:50.920Z,97594.31
2022-09-20T06:12:59.974Z,97593.34
2022-09-20T06:15:36.785Z,97595.44
2022-09-20T06:18:38.918Z,97593.34
2022-09-20T06:21:28.933Z,97596.84
2022-09-20T06:24:01.248Z,97602.13
2022-09-20T06:26:34.307Z,97607.13
2022-09-20T06:29:05.771Z,97608.19
2022-09-20T06:31:32.668Z,97608.69
2022-09-20T06:34:08.256Z,97604.22
2022-09-20T06:36:59.537Z,97604.69
2022-09-20T06:40:11.393Z,97610.88
2022-09-20T06:42:39.490Z,97615.66
2022-09-20T06:45:08.122Z,97617.66
2022-09-20T06:47:38.751Z,97616.63
2022-09-20T06:50:07.534Z,97615.25
2022-09-20T06:52:36.086Z,97624.41
2022-09-20T06:55:07.791Z,97627.13
2022-09-20T06:57:38.415Z,97612.97
2022-09-20T07:00:07.430Z,97620.47
2022-09-20T07:02:34.661Z,97624.00
2022-09-20T07:05:01.945Z,97621.78
2022-09-20T07:07:29.091Z,97622.16
2022-09-20T07:09:56.201Z,97626.84
2022-09-20T07:12:23.269Z,97628.22
2022-09-20T07:14:51.026Z,97631.88
2022-09-20T07:17:18.263Z,97642.75
2022-09-20T07:19:45.351Z,97644.16
2022-09-20T07:22:12.537Z,97644.50
2022-09-20T07:24:41.048Z,97643.00
2022-09-20T07:27:08.696Z,97653.44
2022-09-20T07:29:35.763Z,97651.44
2022-09-20T07:32:03.081Z,97654.97
2022-09-20T07:34:30.349Z,97661.84
2022-09-20T07:36:57.564Z,97661.72
2022-09-20T07:39:24.358Z,97662.41
2022-09-20T07:41:51.713Z,97666.88
2022-09-20T07:44:24.849Z,97663.09
2022-09-20T07:46:53.484Z,97667.56
2022-09-20T07:49:22.493Z,97676.09
2022-09-20T07:51:54.193Z,97668.00
2022-09-20T07:54:21.472Z,97681.47
2022-09-20T07:56:48.726Z,97678.31
2022-09-20T07:59:16.518Z,97685.47
2022-09-20T08:01:43.938Z,97689.41
2022-09-20T08:04:11.917Z,97692.09
2022-09-20T08:06:44.597Z,97688.97
2022-09-20T08:10:35.243Z,97691.69
2022-09-20T08:15:48.987Z,97698.84
2022-09-20T08:18:17.690Z,97699.97
2022-09-20T08:20:44.306Z,97704.44
2022-09-20T08:23:23.333Z,97691.31
2022-09-20T08:25:51.001Z,97690.13
2022-09-20T08:28:17.664Z,97701.34
2022-09-20T08:30:44.223Z,97697.63
2022-09-20T08:33:13.270Z,97696.53
2022-09-20T08:35:39.845Z,97696.88
2022-09-20T08:40:59.916Z,97692.78
2022-09-20T08:43:30.037Z,97701.78
2022-09-20T08:45:59.850Z,97695.13
2022-09-20T08:48:33.951Z,97697.09
2022-09-20T08:51:05.690Z,97695.56
2022-09-20T08:53:33.995Z,97697.63
2022-09-20T08:56:01.542Z,97696.00
2022-09-20T08:58:28.282Z,97694.22
2022-09-20T09:00:59.127Z,97694.19
2022-09-20T09:03:26.811Z,97696.25
2022-09-20T09:05:55.076Z,97692.66
2022-09-20T09:08:24.563Z,97691.78
2022-09-20T09:10:58.228Z,97689.53
2022-09-20T09:13:44.794Z,97691.16
2022-09-20T09:16:25.728Z,97693.56
2022-09-20T09:18:56.030Z,97691.25
2022-09-20T09:21:26.012Z,97698.63
2022-09-20T09:24:10.039Z,97687.81
2022-09-20T09:26:38.304Z,97691.03
2022-09-20T09:29:15.670Z,97692.41
2022-09-20T09:31:45.286Z,97697.56
2022-09-20T09:34:24.338Z,97692.84
2022-09-20T09:36:50.935Z,97694.38
2022-09-20T09:39:25.763Z,97696.72
2022-09-20T09:41:52.953Z,97694.41
2022-09-20T09:44:28.021Z,97690.13
2022-09-20T09:46:56.780Z,97697.44
2022-09-20T09:49:24.984Z,97699.41
2022-09-20T09:51:57.372Z,97694.78
2022-09-20T09:54:28.427Z,97699.78
2022-09-20T09:56:58.079Z,97697.84
2022-09-20T09:59:40.322Z,97705.69
2022-09-20T10:02:19.340Z,97704.69
2022-09-20T10:05:05.934Z,97701.56
2022-09-20T10:11:49.511Z,97705.31
2022-09-20T10:14:34.283Z,97704.25
2022-09-20T10:17:21.311Z,97706.72
2022-09-20T10:20:05.489Z,97706.53
2022-09-20T10:22:41.644Z,97707.38
2022-09-20T10:25:25.351Z,97710.13
2022-09-20T10:28:23.271Z,97707.50
2022-09-20T10:31:16.728Z,97706.63
2022-09-20T10:34:03.009Z,97706.63
2022-09-20T10:36:44.603Z,97721.91
2022-09-20T10:39:17.382Z,97715.34
2022-09-20T10:42:31.806Z,97725.13
2022-09-20T10:45:43.918Z,63001.84
2022-09-20T10:48:42.742Z,63001.84
2022-09-20T10:51:29.953Z,63001.84
2022-09-20T10:54:21.347Z,63001.84
2022-09-20T10:56:52.855Z,63001.84
2022-09-20T10:59:19.415Z,63001.84
2022-09-20T11:02:06.374Z,63001.84
2022-09-20T11:04:45.476Z,63001.84
2022-09-20T11:07:18.405Z,63001.84
2022-09-20T11:10:00.615Z,63001.84
2022-09-20T11:12:54.539Z,63001.84
2022-09-20T11:15:26.201Z,63001.84
2022-09-20T11:18:23.270Z,63001.84
2022-09-20T11:21:04.477Z,63001.84
2022-09-20T11:24:05.698Z,63001.84
2022-09-20T11:26:40.027Z,63001.84
2022-09-20T11:29:22.692Z,63001.84
2022-09-20T11:31:53.163Z,63001.84
2022-09-20T11:34:29.040Z,63001.84
2022-09-20T11:36:58.970Z,63001.84
2022-09-20T11:39:44.153Z,63001.84
2022-09-20T11:42:25.753Z,63001.84
2022-09-20T11:44:54.822Z,63001.84
2022-09-20T11:47:49.765Z,63001.84
2022-09-20T11:50:35.959Z,63001.84
2022-09-20T11:53:05.531Z,63001.84
2022-09-20T11:55:49.859Z,63001.84
2022-09-20T11:58:20.843Z,63001.84
2022-09-20T12:00:56.131Z,63001.84
2022-09-20T12:03:37.549Z,63001.84
2022-09-20T12:06:22.099Z,63001.84
2022-09-20T12:08:52.736Z,63001.84
2022-09-20T12:12:51.373Z,97700.06
2022-09-20T12:15:39.746Z,97714.84
2022-09-20T12:18:15.572Z,97709.50
2022-09-20T12:20:42.661Z,97719.78
2022-09-20T12:23:43.355Z,97714.63
2022-09-20T12:26:15.658Z,97714.59
2022-09-20T12:28:44.567Z,97715.13
2022-09-20T12:31:29.286Z,97715.41
2022-09-20T12:34:13.356Z,97705.69
2022-09-20T12:36:43.308Z,97705.28
2022-09-20T12:39:16.220Z,97707.00
2022-09-20T12:41:46.182Z,97705.47
2022-09-20T12:44:40.707Z,97704.94
2022-09-20T12:47:17.663Z,97697.13
2022-09-20T12:50:06.135Z,97710.47
2022-09-20T12:52:58.234Z,97706.16
2022-09-20T12:55:30.862Z,97710.50
2022-09-20T12:58:11.875Z,97707.84
2022-09-20T13:00:47.555Z,97711.38
2022-09-20T13:03:32.166Z,97723.00
2022-09-20T13:06:09.672Z,97739.22
2022-09-20T13:08:54.980Z,97726.81
2022-09-20T13:11:44.744Z,97726.72
2022-09-20T13:14:24.858Z,97729.94
2022-09-20T13:16:56.815Z,97721.59
2022-09-20T13:19:30.392Z,97721.47
2022-09-20T13:22:02.833Z,97722.66
2022-09-20T13:24:37.025Z,97740.69
2022-09-20T13:27:08.909Z,97739.56
2022-09-20T13:29:40.814Z,97737.91
2022-09-20T13:32:27.464Z,97738.44
2022-09-20T13:35:12.811Z,97739.84
2022-09-20T13:37:51.709Z,97740.78
2022-09-20T13:40:21.459Z,97732.56
2022-09-20T13:42:50.351Z,97750.50
2022-09-20T13:45:19.072Z,97742.34
2022-09-20T13:47:50.902Z,97745.53
2022-09-20T13:50:22.755Z,97742.25
2022-09-20T13:52:54.070Z,97749.03
2022-09-20T13:55:26.566Z,97752.16
2022-09-20T13:57:56.775Z,97750.50
2022-09-20T14:00:26.571Z,97738.53
2022-09-20T14:02:57.562Z,97746.31
2022-09-20T14:05:26.838Z,97748.69
2022-09-20T14:07:54.164Z,97747.06
2022-09-20T14:13:42.083Z,97752.16
2022-09-20T14:16:10.140Z,97745.59
2022-09-20T14:18:40.654Z,97751.44
2022-09-20T14:21:11.735Z,97748.72
2022-09-20T14:24:13.977Z,97746.41
2022-09-20T14:26:42.314Z,97742.13
2022-09-20T14:29:29.685Z,97747.22
2022-09-20T14:31:59.557Z,97751.41
2022-09-20T14:34:26.292Z,97753.63
2022-09-20T14:37:05.417Z,97762.63
2022-09-20T14:39:33.447Z,97763.44
2022-09-20T14:42:00.023Z,97769.16
2022-09-20T14:44:32.169Z,97764.75
2022-09-20T14:46:59.844Z,97765.84
2022-09-20T14:49:26.465Z,97762.84
2022-09-20T14:51:53.777Z,97763.97
2022-09-20T14:54:28.163Z,97763.16
2022-09-20T14:56:57.558Z,97762.97
2022-09-20T14:59:30.389Z,97765.69
2022-09-20T15:02:01.947Z,97770.25
2022-09-20T15:04:29.483Z,97763.13
2022-09-20T15:07:00.293Z,97755.50
2022-09-20T15:09:27.422Z,97761.63
2022-09-20T15:12:07.521Z,97757.88
2022-09-20T15:14:37.757Z,97760.44
2022-09-20T15:17:05.358Z,97769.69
2022-09-20T15:22:20.783Z,97759.13
2022-09-20T15:24:47.540Z,97765.00
2022-09-20T15:30:36.364Z,97765.69
2022-09-20T15:33:03.318Z,97765.69
2022-09-20T15:35:29.992Z,97768.59
2022-09-20T15:37:56.640Z,97776.22
2022-09-20T15:40:24.873Z,97772.50
2022-09-20T15:42:55.973Z,97774.09
2022-09-20T15:45:23.459Z,97769.81
2022-09-20T15:47:50.074Z,97773.06
2022-09-20T15:50:17.431Z,97774.09
2022-09-20T15:52:44.014Z,97772.50
2022-09-20T15:55:12.055Z,97779.50
2022-09-20T15:57:40.389Z,97777.06
2022-09-20T16:00:08.095Z,97781.16
2022-09-20T16:02:34.672Z,97783.84
2022-09-20T16:05:02.174Z,97789.00
2022-09-20T16:07:28.820Z,97780.31
2022-09-20T16:09:56.770Z,97790.25
2022-09-20T16:14:39.641Z,97797.59
2022-09-20T16:17:06.499Z,97809.44
2022-09-20T16:19:33.369Z,97809.28
2022-09-20T16:22:00.305Z,97806.69
2022-09-20T16:24:29.569Z,63001.84
2022-09-20T16:26:57.212Z,63001.84
2022-09-20T16:29:25.756Z,63001.84
2022-09-20T16:31:54.106Z,63001.84
2022-09-20T16:34:28.530Z,63001.84
2022-09-20T16:36:58.742Z,63001.84
2022-09-20T16:39:29.021Z,63001.84
2022-09-20T16:41:59.182Z,63001.84
2022-09-20T16:44:26.040Z,63001.84
2022-09-20T16:46:52.722Z,63001.84
2022-09-20T16:49:19.325Z,63001.84
2022-09-20T16:51:47.059Z,63001.84
2022-09-20T16:54:15.932Z,63001.84
2022-09-20T16:56:46.827Z,63001.84
2022-09-20T16:59:15.930Z,63001.84
2022-09-20T17:01:43.736Z,63001.84
2022-09-20T17:04:13.590Z,63001.84
2022-09-20T17:06:41.471Z,63001.84
2022-09-20T17:09:08.349Z,63001.84
2022-09-20T17:11:38.035Z,63001.84
2022-09-20T17:14:05.786Z,63001.84
2022-09-20T17:16:34.989Z,63001.84
2022-09-20T17:19:09.785Z,63001.84
2022-09-20T17:21:39.425Z,63001.84
2022-09-20T17:24:07.262Z,63001.84
2022-09-20T17:26:40.389Z,63001.84
2022-09-20T17:29:09.550Z,63001.84
2022-09-20T17:31:38.787Z,63001.84
2022-09-20T17:34:07.891Z,63001.84
2022-09-20T17:36:45.758Z,63001.84
2022-09-20T17:39:14.293Z,63001.84
2022-09-20T17:41:43.594Z,63001.84
2022-09-20T17:44:12.073Z,63001.84
2022-09-20T17:46:47.056Z,63001.84
2022-09-20T17:49:16.032Z,63001.84
2022-09-20T17:51:48.230Z,63001.84
2022-09-20T17:54:15.807Z,63001.84
2022-09-20T17:56:44.966Z,63001.84
2022-09-20T17:59:12.723Z,63001.84
2022-09-20T18:01:40.591Z,63001.84
2022-09-20T18:04:08.671Z,63001.84
2022-09-20T18:06:46.484Z,63001.84
2022-09-20T18:09:21.999Z,63001.84
2022-09-20T18:11:52.847Z,63001.84
2022-09-20T18:15:34.428Z,97916.22
2022-09-20T18:18:01.028Z,97916.63
2022-09-20T18:20:28.396Z,97915.38
2022-09-20T18:22:55.139Z,97927.13
2022-09-20T18:25:24.127Z,97919.72
2022-09-20T18:27:50.834Z,97927.91
2022-09-20T18:30:18.290Z,97917.22
2022-09-20T18:32:53.002Z,97918.47
2022-09-20T18:35:19.716Z,97927.16
2022-09-20T18:37:49.855Z,97934.63
2022-09-20T18:40:16.606Z,97933.44
2022-09-20T18:42:47.057Z,97944.00
2022-09-20T18:45:13.967Z,97939.47
2022-09-20T18:47:43.729Z,97942.81
2022-09-20T18:50:13.148Z,97949.63
2022-09-20T18:52:39.657Z,97959.94
2022-09-20T18:55:11.525Z,97954.81
2022-09-20T18:57:40.224Z,97950.28
2022-09-20T19:00:10.176Z,97947.38
2022-09-20T19:03:10.416Z,97954.19
2022-09-20T19:05:59.350Z,97954.59
2022-09-20T19:08:37.196Z,97959.13
2022-09-20T19:11:26.069Z,97952.50
2022-09-20T19:14:02.252Z,97955.19
2022-09-20T19:16:34.361Z,97958.09
2022-09-20T19:19:29.081Z,97962.41
2022-09-20T19:22:05.502Z,97960.53
2022-09-20T19:24:55.652Z,97963.03
2022-09-20T19:27:23.485Z,97962.41
2022-09-20T19:29:53.185Z,97958.09
2022-09-20T19:32:33.461Z,97960.97
2022-09-20T19:35:04.099Z,97958.50
2022-09-20T19:37:41.370Z,97946.13
2022-09-20T19:40:19.779Z,97955.22
2022-09-20T19:43:28.233Z,97955.22
2022-09-20T19:46:16.462Z,97952.31
2022-09-20T19:48:54.617Z,97944.06
2022-09-20T19:51:25.006Z,97955.19
2022-09-20T19:53:56.118Z,97955.59
2022-09-20T19:56:33.479Z,97956.41
2022-09-20T19:59:00.310Z,97955.59
2022-09-20T20:01:27.361Z,97961.78
2022-09-20T20:03:56.014Z,97959.09
2022-09-20T20:06:58.325Z,97955.81
2022-09-20T20:09:50.398Z,97961.78
2022-09-20T20:12:30.511Z,97963.84
2022-09-20T20:17:11.357Z,97980.94
2022-09-20T20:19:46.704Z,97986.69
2022-09-20T20:22:58.480Z,97995.34
2022-09-20T20:25:50.247Z,97999.63
2022-09-20T20:28:16.798Z,98008.50
2022-09-20T20:30:44.076Z,98005.63
2022-09-20T20:33:15.901Z,98002.50
2022-09-20T20:35:42.455Z,97995.69
2022-09-20T20:38:10.733Z,97990.09
2022-09-20T20:40:38.252Z,97998.13
2022-09-20T20:43:06.219Z,98001.63
2022-09-20T20:45:33.006Z,97992.94
2022-09-20T20:47:59.708Z,97996.22
2022-09-20T20:50:27.271Z,97996.44
2022-09-20T20:52:55.763Z,98003.63
2022-09-20T20:55:23.014Z,98002.59
2022-09-20T20:57:59.634Z,97997.63
2022-09-20T21:00:26.746Z,97995.38
2022-09-20T21:02:58.584Z,98000.06
2022-09-20T21:05:26.336Z,97998.00
2022-09-20T21:07:53.200Z,98000.25
2022-09-20T21:10:19.911Z,98007.28
2022-09-20T21:12:46.575Z,97992.19
2022-09-20T21:15:13.251Z,97997.72
2022-09-20T21:17:39.848Z,97994.22
2022-09-20T21:20:06.953Z,98000.41
2022-09-20T21:22:33.922Z,98003.09
2022-09-20T21:25:00.943Z,97995.28
2022-09-20T21:27:29.777Z,98001.69
2022-09-20T21:29:56.762Z,97999.00
2022-09-20T21:32:23.266Z,98001.25
2022-09-20T21:34:49.801Z,98010.13
2022-09-20T21:37:16.301Z,97997.97
2022-09-20T21:39:42.818Z,98005.41
2022-09-20T21:42:09.376Z,97997.78
2022-09-20T21:44:36.038Z,97998.22
2022-09-20T21:47:02.587Z,97998.00
2022-09-20T21:49:29.124Z,98002.13
2022-09-20T21:51:55.629Z,97997.38
2022-09-20T21:54:22.214Z,97995.53
2022-09-20T21:56:50.052Z,98003.56
2022-09-20T21:59:16.907Z,97999.91
2022-09-20T22:01:43.459Z,98000.28
2022-09-20T22:04:12.176Z,98006.31
2022-09-20T22:06:41.279Z,98003.19
2022-09-20T22:09:10.848Z,97999.72
2022-09-20T22:11:40.080Z,98000.75
2022-09-20T22:17:40.688Z,97998.13
2022-09-20T22:20:07.683Z,98008.25
2022-09-20T22:22:34.228Z,97995.91
2022-09-20T22:25:00.880Z,98004.78
2022-09-20T22:27:27.641Z,98003.78
2022-09-20T22:29:54.280Z,98009.94
2022-09-20T22:32:20.809Z,98004.19
2022-09-20T22:34:47.352Z,97998.44
2022-09-20T22:37:13.921Z,98005.66
2022-09-20T22:39:41.679Z,98003.16
2022-09-20T22:42:08.236Z,98004.19
2022-09-20T22:44:34.746Z,97993.28
2022-09-20T22:47:01.329Z,97997.63
2022-09-20T22:49:27.840Z,98000.31
2022-09-20T22:51:54.350Z,97994.13
2022-09-20T22:54:20.860Z,97998.06
2022-09-20T22:56:47.603Z,97993.50
2022-09-20T22:59:14.808Z,97997.66
2022-09-20T23:01:46.761Z,97994.78
2022-09-20T23:04:19.045Z,98000.56
2022-09-20T23:06:48.195Z,98003.25
2022-09-20T23:09:16.576Z,98000.59
2022-09-20T23:11:43.665Z,97994.81
2022-09-20T23:14:15.776Z,98001.63
2022-09-20T23:16:43.106Z,97997.72
2022-09-20T23:19:10.919Z,98002.66
2022-09-20T23:21:38.993Z,98000.81
2022-09-20T23:24:08.766Z,98009.28
2022-09-20T23:26:37.229Z,98002.69
2022-09-20T23:29:09.531Z,98010.53
2022-09-20T23:31:37.827Z,98008.66
2022-09-20T23:34:06.486Z,97997.13
2022-09-20T23:36:36.009Z,98003.94
2022-09-20T23:39:02.767Z,98006.81
2022-09-20T23:41:29.567Z,98005.19
2022-09-20T23:43:56.729Z,98011.56
2022-09-20T23:46:25.534Z,98014.00
2022-09-20T23:48:52.764Z,98016.31
2022-09-20T23:51:22.636Z,98016.91
2022-09-20T23:53:49.902Z,98014.84
2022-09-20T23:56:17.228Z,98016.91
2022-09-20T23:58:44.130Z,98015.22
